• Join FlightAware (Why Join?)
  • Login
  • US Flag 
Trick or treat! (Boo!!) 
08:57AM EDT


 

Airport Tracker/Info


-or-


 

Live Flight TrackerFlight Track Log ✈ N1560T ✈ 30-Aug-2013 ✈ KLSE - KLNL

Flight Track Log - Related Links

Times and Time Zones

All times are in EDT time to prevent confusion due to time zone crossing. See the N1560T flight status page for this flight to view local times or setup timezone preferences in your user account.

Time Position Orientation Groundspeed Altitude Reporting Facility
EDT Latitude Longitude Course Direction KTS MPH feet Rate Location/Type
11:48AM 43.9253 -91.3186 314° West 137 158 2,800  Level Minneapolis Center
11:49AM 43.9553 -91.3619 314° West 146 168 4,200 1,200 Climbing Minneapolis Center
11:50AM 43.9897 -91.3956 325° Northwest 147 169 5,400 1,200 Climbing Minneapolis Center
11:51AM 44.0386 -91.3847 North 169 194 6,700 1,320 Climbing Minneapolis Center
11:52AM 44.0856 -91.3706 12° North 166 191 8,200 1,320 Climbing Minneapolis Center
11:53AM 44.1289 -91.3353 30° Northeast 179 206 9,500 1,200 Climbing Minneapolis Center
11:54AM 44.1697 -91.2961 35° Northeast 179 206 10,700 1,140 Climbing Minneapolis Center
11:55AM 44.2067 -91.2569 37° Northeast 182 209 11,900 1,020 Climbing Minneapolis Center
11:56AM 44.2572 -91.2083 35° Northeast 185 213 12,900 480 Climbing Minneapolis Center
11:57AM 44.3072 -91.1578 36° Northeast 210 242 12,900 60 Level Minneapolis Center
11:58AM 44.3658 -91.0978 36° Northeast 230 265 13,100 60 Climbing Minneapolis Center
11:59AM 44.4169 -91.0458 36° Northeast 230 265 13,100  Level Minneapolis Center
12:00PM 44.4675 -90.9933 37° Northeast 228 262 13,100  Level Minneapolis Center
12:01PM 44.5189 -90.9419 35° Northeast 228 262 13,100 -60 Level Minneapolis Center
12:03PM 44.5769 -90.8825 36° Northeast 226 260 13,000 -60 Descending Minneapolis Center
12:04PM 44.6300 -90.8272 37° Northeast 227 261 13,000  Level Minneapolis Center
12:05PM 44.6808 -90.7753 36° Northeast 226 260 13,000  Level Minneapolis Center
12:06PM 44.7300 -90.7167 40° Northeast 230 265 13,000  Level Minneapolis Center
12:07PM 44.7783 -90.6561 42° Northeast 233 268 13,000  Level Minneapolis Center
12:08PM 44.8278 -90.5981 40° Northeast 233 268 13,000  Level Minneapolis Center
12:09PM 44.8786 -90.5350 41° Northeast 227 261 13,000 -60 Level Minneapolis Center
12:10PM 44.9328 -90.4700 40° Northeast 227 261 12,900 -60 Descending Minneapolis Center
12:11PM 44.9714 -90.4219 41° Northeast 230 265 12,900  Level Minneapolis Center
12:12PM 45.0289 -90.3508 41° Northeast 229 264 12,900  Level Minneapolis Center
12:13PM 45.0719 -90.2989 40° Northeast 231 266 12,900  Level Minneapolis Center
12:14PM 45.1383 -90.2175 41° Northeast 227 261 12,900  Level Minneapolis Center
12:15PM 45.1864 -90.1544 43° Northeast 233 268 12,900  Level Minneapolis Center
12:16PM 45.2364 -90.0958 40° Northeast 233 268 12,900  Level Minneapolis Center
12:17PM 45.2842 -90.0372 41° Northeast 230 265 12,900  Level Minneapolis Center
12:18PM 45.3417 -89.9636 42° Northeast 231 266 12,900 -60 Level Minneapolis Center
12:19PM 45.3886 -89.9053 41° Northeast 226 260 12,800 -480 Descending Minneapolis Center
12:20PM 45.4364 -89.8461 41° Northeast 227 261 12,000 -900 Descending Minneapolis Center
12:21PM 45.4864 -89.7842 41° Northeast 234 269 11,000 -960 Descending Minneapolis Center
12:22PM 45.5358 -89.7222 41° Northeast 236 272 10,100 -840 Descending Minneapolis Center
12:23PM 45.5842 -89.6603 42° Northeast 236 272 9,300 -840 Descending Minneapolis Center
12:24PM 45.6397 -89.5883 42° Northeast 230 265 8,400 -840 Descending Minneapolis Center
12:25PM 45.6864 -89.5303 41° Northeast 226 260 7,600 -840 Descending Minneapolis Center
12:27PM 45.7319 -89.4731 41° Northeast 222 255 6,700 -1,020 Descending Minneapolis Center
12:28PM 45.7756 -89.4161 42° Northeast 217 250 5,600 -1,080 Descending Minneapolis Center
12:29PM 45.8192 -89.3611 41° Northeast 214 246 4,500 -840 Descending Minneapolis Center
12:30PM 45.8561 -89.3117 43° Northeast 198 228 3,900 -540 Descending Minneapolis Center
12:31PM 45.8886 -89.2433 56° Northeast 182 209 3,400 -240 Descending Minneapolis Center
12:32PM 45.9169 -89.1917 52° Northeast 172 198 3,400  Level Minneapolis Center
12:33PM 45.9436 -89.1406 53° Northeast 166 191 3,400  Level Minneapolis Center
12:34PM 45.9708 -89.0897 52° Northeast 163 188 3,400  Level Minneapolis Center
12:35PM 46.0031 -89.0522 39° Northeast 163 188 3,400  Level Minneapolis Center
12:36PM 46.0464 -89.0928 327° Northwest 159 183 3,400 -60 Level Minneapolis Center
12:37PM 46.0800 -89.1297 323° Northwest 156 180 3,300 -300 Descending Minneapolis Center
12:38PM 46.1069 -89.1600 322° Northwest 137 158 2,800 -540 Descending Minneapolis Center
12:39PM 46.1339 -89.1883 324° Northwest 127 146 2,200 -540 Descending Minneapolis Center
12:40PM 46.1614 -89.2192 322° Northwest 122 140 1,800 -420 Descending Minneapolis Center